Latest Weather Observations for Warburto Point

IDS60801

Issued at 12:42 am CST Wednesday 23 September 2020 (issued every 10 minutes, with the page automatically refreshed every 10 minutes)

About weather observations | Map of weather stations | Latest weather observations for SA | Other Formats
Station Details ID: 022053 Name: WARBURTO POINT Lat: -34.00 Lon: 137.53 Height: 1.0 m
Data from the previous 72 hours. | See also: Recent months at Warburto Point
Date/Time
CST
Temp
°C
App
Temp
°C
Dew
Point
°C
Rel
Hum
%
Delta-T
°C
Wind Press
QNH
hPa
Press
MSL
hPa
Rain since
9am
mm
Dir  Spd
km/h
Gust
km/h
Spd
kts
Gust
kts
23/12:30am - - - - - W 33 43 18 23 - - -
23/12:00am - - - - - WSW 33 44 18 24 - - -
 
Date/Time
CST
Temp
°C
App
Temp
°C
Dew
Point
°C
Rel
Hum
%
Delta-T
°C
Wind Press
QNH
hPa
Press
MSL
hPa
Rain since
9am
mm
Dir  Spd
km/h
Gust
km/h
Spd
kts
Gust
kts
22/11:30pm - - - - - WSW 33 41 18 22 - - -
22/11:00pm - - - - - W 39 50 21 27 - - -
22/10:30pm - - - - - W 35 46 19 25 - - -
22/10:00pm - - - - - W 37 48 20 26 - - -
22/09:30pm - - - - - W 39 52 21 28 - - -
22/09:00pm - - - - - W 35 48 19 26 - - -
22/08:30pm - - - - - W 37 48 20 26 - - -
22/08:00pm - - - - - W 41 52 22 28 - - -
22/07:30pm - - - - - WSW 33 52 18 28 - - -
22/07:29pm - - - - - WSW 32 52 17 28 - - -
22/07:00pm - - - - - SW 30 37 16 20 - - -
22/06:30pm - - - - - SW 28 35 15 19 - - -
22/06:00pm - - - - - SW 28 35 15 19 - - -
22/05:30pm - - - - - SW 30 37 16 20 - - -
22/05:00pm - - - - - SW 30 37 16 20 - - -
22/04:30pm - - - - - SW 30 35 16 19 - - -
22/04:00pm - - - - - SW 28 35 15 19 - - -
22/03:30pm - - - - - SW 32 39 17 21 - - -
22/03:00pm - - - - - WSW 30 37 16 20 - - -
22/02:30pm - - - - - WSW 33 41 18 22 - - -
22/02:00pm - - - - - WSW 33 41 18 22 - - -
22/01:30pm - - - - - W 32 37 17 20 - - -
22/01:00pm - - - - - W 33 43 18 23 - - -
22/12:30pm - - - - - W 35 46 19 25 - - -
22/12:00pm - - - - - W 37 50 20 27 - - -
22/11:30am - - - - - WNW 32 41 17 22 - - -
22/11:00am - - - - - WNW 35 48 19 26 - - -
22/10:30am - - - - - W 39 52 21 28 - - -
22/10:00am - - - - - W 41 52 22 28 - - -
22/09:30am - - - - - WNW 39 48 21 26 - - -
22/09:00am - - - - - WNW 39 50 21 27 - - -
22/08:30am - - - - - WNW 39 48 21 26 - - -
22/08:00am - - - - - WNW 41 50 22 27 - - -
22/07:30am - - - - - WNW 43 52 23 28 - - -
22/07:00am - - - - - WNW 39 50 21 27 - - -
22/06:45am - - - - - NW 39 57 21 31 - - -
22/06:30am - - - - - WNW 43 52 23 28 - - -
22/06:00am - - - - - WNW 43 52 23 28 - - -
22/05:30am - - - - - WNW 41 59 22 32 - - -
22/05:27am - - - - - WNW 41 59 22 32 - - -
22/05:00am - - - - - WNW 41 54 22 29 - - -
22/04:32am - - - - - WNW 39 50 21 27 - - -
22/04:30am - - - - - WNW 41 57 22 31 - - -
22/04:00am - - - - - WNW 44 54 24 29 - - -
22/03:30am - - - - - WNW 43 54 23 29 - - -
22/03:00am - - - - - WNW 39 48 21 26 - - -
22/02:30am - - - - - WNW 39 50 21 27 - - -
22/02:00am - - - - - WNW 37 52 20 28 - - -
22/01:30am - - - - - WNW 39 50 21 27 - - -
22/01:00am - - - - - WNW 43 56 23 30 - - -
22/12:30am - - - - - WNW 41 52 22 28 - - -
22/12:10am - - - - - WNW 41 61 22 33 - - -
22/12:00am - - - - - WNW 39 50 21 27 - - -
 
Date/Time
CST
Temp
°C
App
Temp
°C
Dew
Point
°C
Rel
Hum
%
Delta-T
°C
Wind Press
QNH
hPa
Press
MSL
hPa
Rain since
9am
mm
Dir  Spd
km/h
Gust
km/h
Spd
kts
Gust
kts
21/11:30pm - - - - - WNW 39 48 21 26 - - -
21/11:05pm - - - - - WNW 39 57 21 31 - - -
21/11:00pm - - - - - WNW 41 56 22 30 - - -
21/10:30pm - - - - - W 41 52 22 28 - - -
21/10:00pm - - - - - WNW 41 54 22 29 - - -
21/09:30pm - - - - - WNW 48 61 26 33 - - -
21/09:06pm - - - - - W 46 65 25 35 - - -
21/09:00pm - - - - - W 41 54 22 29 - - -
21/08:42pm - - - - - WNW 50 70 27 38 - - -
21/08:36pm - - - - - WNW 39 70 21 38 - - -
21/08:34pm - - - - - WNW 35 54 19 29 - - -
21/08:30pm - - - - - WNW 33 41 18 22 - - -
21/08:00pm - - - - - W 33 44 18 24 - - -
21/07:53pm - - - - - WNW 35 50 19 27 - - -
21/07:30pm - - - - - WNW 39 50 21 27 - - -
21/07:00pm - - - - - WNW 37 48 20 26 - - -
21/06:30pm - - - - - WNW 43 54 23 29 - - -
21/06:00pm - - - - - W 44 61 24 33 - - -
21/05:30pm - - - - - W 52 61 28 33 - - -
21/05:00pm - - - - - WSW 44 61 24 33 - - -
21/04:44pm - - - - - WSW 28 50 15 27 - - -
21/04:30pm - - - - - SW 20 28 11 15 - - -
21/04:00pm - - - - - W 32 41 17 22 - - -
21/03:30pm - - - - - W 22 32 12 17 - - -
21/03:00pm - - - - - WSW 30 37 16 20 - - -
21/02:30pm - - - - - W 26 33 14 18 - - -
21/02:00pm - - - - - W 22 28 12 15 - - -
21/01:30pm - - - - - WNW 17 20 9 11 - - -
21/01:00pm - - - - - W 22 28 12 15 - - -
21/12:30pm - - - - - WNW 28 35 15 19 - - -
21/12:00pm - - - - - NW 26 32 14 17 - - -
21/11:30am - - - - - NW 28 35 15 19 - - -
21/11:00am - - - - - NW 33 41 18 22 - - -
21/10:30am - - - - - NW 33 41 18 22 - - -
21/10:00am - - - - - NNW 43 56 23 30 - - -
21/09:30am - - - - - NNW 43 52 23 28 - - -
21/09:00am - - - - - N 46 57 25 31 - - -
21/08:30am - - - - - N 52 63 28 34 - - -
21/08:00am - - - - - N 52 61 28 33 - - -
21/07:30am - - - - - N 48 61 26 33 - - -
21/07:00am - - - - - N 46 54 25 29 - - -
21/06:30am - - - - - N 41 48 22 26 - - -
21/06:00am - - - - - N 41 50 22 27 - - -
21/05:30am - - - - - N 35 43 19 23 - - -
21/05:00am - - - - - N 32 35 17 19 - - -
21/04:30am - - - - - N 24 30 13 16 - - -
21/04:00am - - - - - NNW 19 26 10 14 - - -
21/03:30am - - - - - NW 17 22 9 12 - - -
21/03:00am - - - - - WNW 22 28 12 15 - - -
21/02:30am - - - - - W 22 30 12 16 - - -
21/02:00am - - - - - W 26 33 14 18 - - -
21/01:30am - - - - - W 28 35 15 19 - - -
21/01:00am - - - - - W 26 33 14 18 - - -
21/12:30am - - - - - W 32 41 17 22 - - -
21/12:00am - - - - - WNW 33 46 18 25 - - -
 
Date/Time
CST
Temp
°C
App
Temp
°C
Dew
Point
°C
Rel
Hum
%
Delta-T
°C
Wind Press
QNH
hPa
Press
MSL
hPa
Rain since
9am
mm
Dir  Spd
km/h
Gust
km/h
Spd
kts
Gust
kts
20/11:30pm - - - - - W 41 56 22 30 - - -
20/11:00pm - - - - - W 35 48 19 26 - - -
20/10:30pm - - - - - W 30 41 16 22 - - -
20/10:00pm - - - - - W 35 46 19 25 - - -
20/09:30pm - - - - - W 35 50 19 27 - - -
20/09:00pm - - - - - W 43 56 23 30 - - -
20/08:34pm - - - - - W 43 63 23 34 - - -
20/08:30pm - - - - - W 39 54 21 29 - - -
20/08:00pm - - - - - W 33 46 18 25 - - -
20/07:30pm - - - - - WSW 41 57 22 31 - - -
20/07:13pm - - - - - WSW 39 57 21 31 - - -
20/07:00pm - - - - - WSW 35 48 19 26 - - -
20/06:30pm - - - - - WSW 33 44 18 24 - - -
20/06:00pm - - - - - W 35 48 19 26 - - -
20/05:30pm - - - - - WSW 32 48 17 26 - - -
20/05:00pm - - - - - WSW 28 39 15 21 - - -
20/04:37pm - - - - - WSW 33 52 18 28 - - -
20/04:30pm - - - - - W 37 52 20 28 - - -
20/04:27pm - - - - - W 33 52 18 28 - - -
20/04:00pm - - - - - N 30 37 16 20 - - -
20/03:30pm - - - - - N 35 44 19 24 - - -
20/03:00pm - - - - - N 33 41 18 22 - - -
20/02:30pm - - - - - NNE 43 54 23 29 - - -
20/02:00pm - - - - - NNE 44 54 24 29 - - -
20/01:30pm - - - - - NNE 43 52 23 28 - - -
20/01:00pm - - - - - NNE 46 56 25 30 - - -
20/12:30pm - - - - - NNE 44 56 24 30 - - -
20/12:00pm - - - - - NNE 44 57 24 31 - - -
20/11:30am - - - - - NNE 39 50 21 27 - - -
20/11:00am - - - - - NNE 41 50 22 27 - - -
20/10:30am - - - - - NNE 35 44 19 24 - - -
20/10:00am - - - - - NNE 33 41 18 22 - - -
20/09:30am - - - - - NNE 33 43 18 23 - - -
20/09:00am - - - - - NNE 35 43 19 23 - - -
20/08:30am - - - - - NNE 32 37 17 20 - - -
20/08:00am - - - - - NNE 28 33 15 18 - - -
20/07:30am - - - - - NNE 26 32 14 17 - - -
20/07:00am - - - - - NNE 26 32 14 17 - - -
20/06:30am - - - - - N 26 30 14 16 - - -
20/06:00am - - - - - N 24 30 13 16 - - -
20/05:30am - - - - - N 22 28 12 15 - - -
20/05:00am - - - - - N 19 22 10 12 - - -
20/04:30am - - - - - N 20 26 11 14 - - -
20/04:00am - - - - - N 20 26 11 14 - - -
20/03:30am - - - - - N 20 24 11 13 - - -
20/03:00am - - - - - N 19 22 10 12 - - -
20/02:30am - - - - - NNW 17 20 9 11 - - -
20/02:00am - - - - - NNW 13 17 7 9 - - -
20/01:30am - - - - - NNW 17 19 9 10 - - -
20/01:00am - - - - - NNW 13 15 7 8 - - -

Other formats

Comma delimited format used in spreadsheet applications
http://www.bom.gov.au/fwo/IDS60801/IDS60801.94666.axf

JavaScript Object Notation format (JSON) in row-major order
http://www.bom.gov.au/fwo/IDS60801/IDS60801.94666.json

Data quality

Most of these data are generated automatically and are frequently updated. Quality checks on data are not normally performed. It is possible for incorrect values to appear. Refer to information at About Latest Weather Observations and please check the disclaimer before using these data.